Time;durP1;ratioP1;P1;durP2;ratioP2;P2;SDS_P1;SDS_P2;PMS_P1;PMS_P2;Temp;Humidity;BMP_temperature;BMP_pressure;BME280_temperature;BME280_humidity;BME280_pressure;Samples;Min_cycle;Max_cycle;Signal;HPM_P1;HPM_P2
2022/03/17 00:02:08;;;;;;;27.90;19.60;;;11.60;75.00;;;;;;6123170;23;92457;-71
2022/03/17 00:04:35;;;;;;;24.13;18.60;;;11.60;75.10;;;;;;6122369;23;92343;-70
2022/03/17 00:07:02;;;;;;;27.00;19.73;;;11.60;75.60;;;;;;6097983;23;95716;-70
2022/03/17 00:09:29;;;;;;;28.55;20.55;;;11.50;75.50;;;;;;6124797;22;92993;-70
2022/03/17 00:11:57;;;;;;;23.50;17.80;;;11.50;75.70;;;;;;6124582;23;92394;-70
2022/03/17 00:14:24;;;;;;;29.15;21.35;;;11.50;75.90;;;;;;6073917;23;92413;-70
2022/03/17 00:16:51;;;;;;;23.00;17.70;;;11.50;75.70;;;;;;6120951;23;97241;-70
2022/03/17 00:19:18;;;;;;;27.08;19.80;;;11.50;75.90;;;;;;6124214;22;95251;-70
2022/03/17 00:21:45;;;;;;;27.27;19.90;;;11.40;76.00;;;;;;6122694;23;92467;-70
2022/03/17 00:24:12;;;;;;;26.17;18.63;;;11.40;76.20;;;;;;6122641;23;92422;-70
2022/03/17 00:26:39;;;;;;;27.15;19.55;;;11.40;76.30;;;;;;6123966;22;93199;-70
2022/03/17 00:29:09;;;;;;;26.90;19.73;;;11.40;76.50;;;;;;6097883;23;95713;-70
2022/03/17 00:31:39;;;;;;;23.95;16.13;;;11.40;76.60;;;;;;6122139;23;99764;-70
2022/03/17 00:34:08;;;;;;;26.42;17.85;;;11.30;76.50;;;;;;6125125;22;92123;-70
2022/03/17 00:36:35;;;;;;;27.80;20.88;;;11.30;76.90;;;;;;6122354;23;92526;-70
2022/03/17 00:39:04;;;;;;;26.88;19.45;;;11.30;76.70;;;;;;6124149;22;92941;-70
2022/03/17 00:41:32;;;;;;;23.80;15.68;;;11.30;76.80;;;;;;6121571;23;94735;-70
2022/03/17 00:43:59;;;;;;;24.23;16.95;;;11.30;77.00;;;;;;6123939;23;92824;-70
2022/03/17 00:46:27;;;;;;;23.33;17.55;;;11.30;77.20;;;;;;6123758;23;93183;-70
2022/03/17 00:48:54;;;;;;;29.63;21.00;;;11.20;77.20;;;;;;6125132;23;92941;-70
2022/03/17 00:51:21;;;;;;;29.05;20.48;;;11.30;77.10;;;;;;6125421;22;92340;-70
2022/03/17 00:53:48;;;;;;;30.42;19.73;;;11.30;77.30;;;;;;6123506;23;92589;-70
2022/03/17 00:56:15;;;;;;;26.58;17.85;;;11.30;77.30;;;;;;6123788;23;92588;-70
2022/03/17 00:58:45;;;;;;;28.95;18.73;;;11.20;77.40;;;;;;6125455;22;92868;-70
2022/03/17 01:01:14;;;;;;;25.40;19.38;;;11.20;77.40;;;;;;6123901;23;92464;-70
2022/03/17 01:03:42;;;;;;;28.27;18.27;;;11.20;77.30;;;;;;6123062;23;92548;-70
2022/03/17 01:06:10;;;;;;;24.05;16.58;;;11.20;77.60;;;;;;6122150;23;95450;-70
2022/03/17 01:08:38;;;;;;;30.70;21.50;;;11.10;77.60;;;;;;6098837;23;97898;-70
2022/03/17 01:11:05;;;;;;;25.13;20.10;;;11.10;77.60;;;;;;6123614;23;92407;-70
2022/03/17 01:13:32;;;;;;;30.95;21.15;;;11.20;77.70;;;;;;6099074;23;92452;-70
2022/03/17 01:15:59;;;;;;;29.45;18.25;;;11.20;77.70;;;;;;6123274;23;95905;-70
2022/03/17 01:18:27;;;;;;;25.67;18.08;;;11.20;77.70;;;;;;6098911;23;94023;-70
2022/03/17 01:20:54;;;;;;;25.38;18.67;;;11.20;77.70;;;;;;6125126;23;92396;-70
2022/03/17 01:23:21;;;;;;;24.65;17.35;;;11.20;77.80;;;;;;6124076;23;91769;-70
2022/03/17 01:25:47;;;;;;;25.70;18.75;;;11.20;77.70;;;;;;6124313;22;106361;-70
2022/03/17 01:28:14;;;;;;;27.95;19.52;;;11.20;78.00;;;;;;6123349;23;96394;-70
2022/03/17 01:30:41;;;;;;;30.00;20.27;;;11.30;77.90;;;;;;6123625;23;94758;-70
2022/03/17 01:33:08;;;;;;;27.17;17.35;;;11.30;77.70;;;;;;6099004;23;92474;-70
2022/03/17 01:35:35;;;;;;;30.80;21.75;;;11.30;77.60;;;;;;6125302;22;92970;-70
2022/03/17 01:38:02;;;;;;;27.77;19.17;;;11.30;77.50;;;;;;6098746;23;92908;-70
2022/03/17 01:40:29;;;;;;;25.10;16.38;;;11.30;77.50;;;;;;6098997;23;92439;-70
2022/03/17 01:42:56;;;;;;;24.58;17.17;;;11.30;77.40;;;;;;6123284;23;92531;-70
2022/03/17 01:45:25;;;;;;;23.10;15.77;;;11.40;77.70;;;;;;6125065;23;93115;-70
2022/03/17 01:47:52;;;;;;;25.23;17.65;;;11.30;77.40;;;;;;6099158;23;95717;-70
2022/03/17 01:50:19;;;;;;;27.98;18.35;;;11.30;77.00;;;;;;6124893;22;97249;-70
2022/03/17 01:52:46;;;;;;;28.40;20.42;;;11.40;77.20;;;;;;6124945;22;92383;-70
2022/03/17 01:55:19;;;;;;;25.98;17.05;;;11.40;77.10;;;;;;6097106;23;98106;-70
2022/03/17 01:57:47;;;;;;;28.90;20.83;;;11.40;77.00;;;;;;6124725;22;95467;-70
2022/03/17 02:00:18;;;;;;;22.65;16.20;;;11.40;76.90;;;;;;6125166;23;92416;-70
2022/03/17 02:02:47;;;;;;;23.33;16.98;;;11.40;77.40;;;;;;6123419;23;92368;-70
2022/03/17 02:05:15;;;;;;;25.48;18.40;;;11.40;77.30;;;;;;6123258;23;93253;-70
2022/03/17 02:07:46;;;;;;;22.67;16.35;;;11.40;77.20;;;;;;6123189;23;96097;-70
2022/03/17 02:10:13;;;;;;;26.17;19.10;;;11.40;77.20;;;;;;6125277;22;92343;-70
2022/03/17 02:15:32;;;;;;;27.55;17.60;;;11.50;77.30;;;;;;6123435;23;96064;-70
2022/03/17 02:18:02;;;;;;;28.92;19.73;;;11.50;77.30;;;;;;6124851;22;92864;-70
2022/03/17 02:20:29;;;;;;;26.60;18.50;;;11.50;77.00;;;;;;6123845;23;95052;-70
2022/03/17 02:25:33;;;;;;;23.23;17.23;;;11.50;77.10;;;;;;6124964;22;92352;-70
2022/03/17 02:25:47;;;;;;;27.20;19.83;;;11.50;77.00;;;;;;6124942;22;93181;-70
2022/03/17 02:28:15;;;;;;;25.05;18.95;;;11.50;77.10;;;;;;6124987;22;92999;-70
2022/03/17 02:30:42;;;;;;;27.98;21.33;;;11.50;77.10;;;;;;6125336;23;92988;-70
2022/03/17 02:33:12;;;;;;;27.27;18.15;;;11.50;77.00;;;;;;6124797;23;92458;-70
2022/03/17 02:35:40;;;;;;;26.52;18.30;;;11.60;77.10;;;;;;6098432;23;95589;-70
2022/03/17 02:38:07;;;;;;;26.48;17.83;;;11.60;76.90;;;;;;6123572;23;92895;-70
2022/03/17 02:40:36;;;;;;;26.65;19.35;;;11.50;77.10;;;;;;6125070;22;92395;-70
2022/03/17 02:43:05;;;;;;;24.63;17.35;;;11.50;77.10;;;;;;6122891;23;92547;-70
2022/03/17 02:45:36;;;;;;;26.38;17.88;;;11.60;77.70;;;;;;6123099;23;99597;-70
2022/03/17 02:48:05;;;;;;;24.27;17.75;;;11.60;77.50;;;;;;6122839;23;96417;-70
2022/03/17 02:50:34;;;;;;;24.40;17.17;;;11.60;77.30;;;;;;6098433;23;92423;-70
2022/03/17 02:53:05;;;;;;;25.45;16.98;;;11.60;77.60;;;;;;6097859;23;92359;-70
2022/03/17 02:55:38;;;;;;;26.52;19.38;;;11.60;77.80;;;;;;6124382;23;93260;-70
2022/03/17 02:58:06;;;;;;;23.85;18.42;;;11.60;77.50;;;;;;6122882;23;93019;-70
2022/03/17 03:00:34;;;;;;;26.00;18.20;;;11.60;77.80;;;;;;6124831;22;92372;-70
2022/03/17 03:03:03;;;;;;;23.40;16.45;;;11.60;77.90;;;;;;6124960;22;92219;-70
2022/03/17 03:05:30;;;;;;;25.17;16.77;;;11.60;77.80;;;;;;6123947;23;93130;-70
2022/03/17 03:07:57;;;;;;;26.95;18.90;;;11.60;77.80;;;;;;6122908;23;92992;-70
2022/03/17 03:10:24;;;;;;;23.17;16.95;;;11.70;78.20;;;;;;6096451;23;110022;-70
2022/03/17 03:12:51;;;;;;;23.70;16.92;;;11.70;78.10;;;;;;6123323;23;92507;-70
2022/03/17 03:15:18;;;;;;;23.98;18.05;;;11.70;78.00;;;;;;6124442;22;92482;-70
2022/03/17 03:17:45;;;;;;;25.42;19.27;;;11.70;77.70;;;;;;6122934;23;95606;-70
2022/03/17 03:20:12;;;;;;;24.15;16.75;;;11.70;77.90;;;;;;6123321;23;92372;-70
2022/03/17 03:22:39;;;;;;;24.65;18.85;;;11.70;77.70;;;;;;6125005;22;92379;-70
2022/03/17 03:25:08;;;;;;;25.85;17.58;;;11.70;78.00;;;;;;6124229;22;93054;-70
2022/03/17 03:27:37;;;;;;;25.17;17.25;;;11.70;78.00;;;;;;6125403;22;93008;-70
2022/03/17 03:30:04;;;;;;;23.00;18.10;;;11.70;78.00;;;;;;6123127;23;92398;-70
2022/03/17 03:32:31;;;;;;;27.35;18.33;;;11.70;78.30;;;;;;6099067;23;92536;-70
2022/03/17 03:37:22;;;;;;;24.17;18.05;;;11.70;78.20;;;;;;6122341;22;106001;-70
2022/03/17 03:37:45;;;;;;;26.10;19.17;;;11.70;78.00;;;;;;6123303;23;95191;-70
2022/03/17 03:40:12;;;;;;;24.77;18.48;;;11.70;78.10;;;;;;6123992;22;101662;-70
2022/03/17 03:42:39;;;;;;;25.50;18.80;;;11.70;78.00;;;;;;6124813;22;92864;-70
2022/03/17 03:45:06;;;;;;;25.13;19.45;;;11.70;78.20;;;;;;6122538;23;95594;-70
2022/03/17 03:47:33;;;;;;;25.60;18.42;;;11.70;78.00;;;;;;6122658;23;94555;-70
2022/03/17 03:50:01;;;;;;;27.92;19.25;;;11.80;78.10;;;;;;6124460;22;92306;-70
2022/03/17 03:52:28;;;;;;;27.88;19.38;;;11.80;78.30;;;;;;6123410;23;91724;-70
2022/03/17 03:54:55;;;;;;;27.00;18.58;;;11.80;78.10;;;;;;6122924;23;93291;-70
2022/03/17 03:57:22;;;;;;;25.73;19.60;;;11.80;78.20;;;;;;6122717;23;93202;-70
2022/03/17 03:59:49;;;;;;;28.17;18.90;;;11.80;78.10;;;;;;6121459;23;94883;-70
2022/03/17 04:02:16;;;;;;;27.73;19.92;;;11.80;78.10;;;;;;6098452;23;92803;-70
2022/03/17 04:04:43;;;;;;;26.48;18.10;;;11.90;77.90;;;;;;6123763;22;92834;-71
2022/03/17 04:07:11;;;;;;;26.40;19.65;;;11.90;77.80;;;;;;6124028;22;92970;-70
2022/03/17 04:09:40;;;;;;;24.40;18.63;;;11.90;77.90;;;;;;6123294;23;92931;-70
2022/03/17 04:12:09;;;;;;;25.15;18.77;;;11.80;78.20;;;;;;6122428;23;92417;-70
2022/03/17 04:14:37;;;;;;;23.88;18.33;;;11.90;78.10;;;;;;6122439;23;95851;-70
2022/03/17 04:17:04;;;;;;;23.08;16.95;;;11.90;78.20;;;;;;6122009;23;110226;-70
2022/03/17 04:19:32;;;;;;;25.15;19.02;;;11.90;77.90;;;;;;6124538;22;92369;-70
2022/03/17 04:21:59;;;;;;;28.33;19.52;;;11.90;77.70;;;;;;6124525;22;92427;-70
2022/03/17 04:24:26;;;;;;;23.48;18.05;;;12.00;77.80;;;;;;6120960;23;95585;-71
2022/03/17 04:26:53;;;;;;;23.02;18.05;;;12.00;77.80;;;;;;6122567;23;95631;-70
2022/03/17 04:29:20;;;;;;;22.90;18.20;;;12.00;77.90;;;;;;6124680;23;92416;-73
2022/03/17 04:31:47;;;;;;;27.45;19.73;;;12.00;77.70;;;;;;6123435;23;92527;-73
2022/03/17 04:34:14;;;;;;;26.25;19.70;;;12.00;77.60;;;;;;6122800;23;95978;-73
2022/03/17 04:36:41;;;;;;;25.13;18.85;;;12.00;77.70;;;;;;6124862;22;93070;-73
2022/03/17 04:39:11;;;;;;;25.67;19.25;;;12.10;77.60;;;;;;6123162;23;92499;-72
2022/03/17 04:41:39;;;;;;;27.65;19.42;;;12.00;77.70;;;;;;6123013;23;92051;-70
2022/03/17 04:44:07;;;;;;;27.67;18.88;;;12.10;77.60;;;;;;6123789;23;93104;-70
2022/03/17 04:46:35;;;;;;;27.63;20.88;;;12.10;77.60;;;;;;6097389;23;106396;-70
2022/03/17 04:49:03;;;;;;;27.40;20.67;;;12.10;78.00;;;;;;6096638;23;94867;-70
2022/03/17 04:51:31;;;;;;;27.67;21.33;;;12.20;78.10;;;;;;6124030;22;92395;-70
2022/03/17 04:53:58;;;;;;;27.30;21.20;;;12.20;78.10;;;;;;6122521;23;93191;-71
2022/03/17 04:56:25;;;;;;;30.20;21.15;;;12.20;78.20;;;;;;6123722;22;93078;-70
2022/03/17 04:58:52;;;;;;;27.92;21.20;;;12.20;78.60;;;;;;6122631;23;92333;-70
2022/03/17 05:01:20;;;;;;;30.23;23.05;;;12.20;79.10;;;;;;6097421;23;92533;-70
2022/03/17 05:03:47;;;;;;;32.35;23.77;;;12.20;79.70;;;;;;6122171;23;93194;-72
2022/03/17 05:06:15;;;;;;;29.77;24.27;;;12.20;80.10;;;;;;6122879;23;97893;-73
2022/03/17 05:08:42;;;;;;;34.75;25.25;;;12.20;80.70;;;;;;6123073;23;92391;-72
2022/03/17 05:11:11;;;;;;;31.77;23.15;;;12.20;81.50;;;;;;6123025;23;92350;-73
2022/03/17 05:13:39;;;;;;;42.22;27.83;;;12.20;82.60;;;;;;6096670;23;99130;-72
2022/03/17 05:16:07;;;;;;;40.17;27.35;;;12.20;84.00;;;;;;6124495;22;95437;-72
2022/03/17 05:18:35;;;;;;;40.53;30.27;;;12.10;84.80;;;;;;6097227;23;112013;-73
2022/03/17 05:21:03;;;;;;;42.58;30.13;;;12.10;85.50;;;;;;6124299;22;92386;-70
2022/03/17 05:23:33;;;;;;;40.50;29.77;;;12.10;86.00;;;;;;6122076;23;93185;-70
2022/03/17 05:26:01;;;;;;;45.85;30.63;;;12.00;86.60;;;;;;6123816;22;93120;-70
2022/03/17 05:28:28;;;;;;;43.97;30.75;;;12.00;87.00;;;;;;6125567;22;92496;-72
2022/03/17 05:30:55;;;;;;;46.88;32.00;;;12.00;87.60;;;;;;6126375;22;91719;-72
2022/03/17 05:33:23;;;;;;;45.45;31.73;;;12.00;88.30;;;;;;6125482;23;92315;-73
2022/03/17 05:35:49;;;;;;;45.38;29.98;;;12.00;88.70;;;;;;6123445;23;95559;-70
2022/03/17 05:38:16;;;;;;;49.22;34.63;;;11.90;88.90;;;;;;6123780;22;94829;-72
2022/03/17 05:40:44;;;;;;;49.03;32.70;;;11.90;89.40;;;;;;6124078;23;96451;-72
2022/03/17 05:43:11;;;;;;;48.33;31.40;;;11.90;89.60;;;;;;6125674;22;93330;-72
2022/03/17 05:45:40;;;;;;;50.05;34.85;;;11.90;89.90;;;;;;6124192;23;93733;-72
2022/03/17 05:48:08;;;;;;;51.92;34.55;;;11.80;90.20;;;;;;6125764;22;92402;-70
2022/03/17 05:50:38;;;;;;;50.70;34.03;;;11.80;90.40;;;;;;6123444;23;92510;-70
2022/03/17 05:53:09;;;;;;;47.47;33.28;;;11.90;90.50;;;;;;6125144;22;93079;-70
2022/03/17 05:55:37;;;;;;;49.70;32.72;;;11.80;90.70;;;;;;6123269;23;95764;-70
2022/03/17 05:58:05;;;;;;;27.40;19.85;;;11.80;90.90;;;;;;6125211;22;92393;-70
2022/03/17 06:00:33;;;;;;;16.77;13.30;;;11.80;90.90;;;;;;6125089;22;92792;-70
2022/03/17 06:03:00;;;;;;;17.58;11.63;;;11.70;90.50;;;;;;6121153;23;107010;-70
2022/03/17 06:05:29;;;;;;;15.15;11.77;;;11.60;90.40;;;;;;6122458;23;92620;-70
2022/03/17 06:08:00;;;;;;;9.32;7.90;;;11.60;90.40;;;;;;6098535;23;92413;-70
2022/03/17 06:10:34;;;;;;;7.65;6.43;;;11.60;90.10;;;;;;6125693;23;92303;-70
2022/03/17 06:13:04;;;;;;;6.60;5.78;;;11.50;90.00;;;;;;6126025;22;92887;-70
2022/03/17 06:15:31;;;;;;;6.60;6.03;;;11.40;89.20;;;;;;6123407;23;95982;-70
2022/03/17 06:18:00;;;;;;;6.68;5.93;;;11.30;88.70;;;;;;6125926;23;92414;-70
2022/03/17 06:20:30;;;;;;;7.10;6.40;;;11.30;88.80;;;;;;6126577;22;91617;-72
2022/03/17 06:22:59;;;;;;;9.20;7.55;;;11.30;88.70;;;;;;6123906;23;95136;-70
2022/03/17 06:25:30;;;;;;;10.73;8.00;;;11.20;88.60;;;;;;6125225;23;92439;-70
2022/03/17 06:28:00;;;;;;;10.80;8.20;;;11.10;88.30;;;;;;6123050;23;95007;-72
2022/03/17 06:30:30;;;;;;;12.93;8.65;;;11.10;88.30;;;;;;6124433;23;92543;-73
2022/03/17 06:32:58;;;;;;;10.95;9.40;;;11.00;88.50;;;;;;6124688;23;95683;-73
2022/03/17 06:35:26;;;;;;;12.98;9.20;;;11.00;88.50;;;;;;6124757;23;106189;-70
2022/03/17 06:37:55;;;;;;;12.20;9.18;;;10.90;88.60;;;;;;6125569;23;92288;-73
2022/03/17 06:40:24;;;;;;;13.43;9.60;;;10.90;88.70;;;;;;6125728;22;92399;-72
2022/03/17 06:42:52;;;;;;;12.90;9.20;;;10.90;88.50;;;;;;6124744;23;93387;-72
2022/03/17 06:45:19;;;;;;;15.43;9.63;;;10.90;88.50;;;;;;6099819;23;96013;-72
2022/03/17 06:47:46;;;;;;;14.57;9.27;;;10.90;88.50;;;;;;6126058;22;92396;-73
2022/03/17 06:50:16;;;;;;;13.15;8.50;;;10.90;88.40;;;;;;6124482;23;92441;-73
2022/03/17 06:52:43;;;;;;;12.40;8.00;;;11.00;88.20;;;;;;6097909;23;95476;-73
2022/03/17 06:55:11;;;;;;;10.63;8.05;;;10.90;87.80;;;;;;6124595;23;95420;-73
2022/03/17 06:57:38;;;;;;;11.63;7.50;;;10.90;87.70;;;;;;6125806;23;92449;-73
2022/03/17 07:00:07;;;;;;;12.15;7.88;;;10.90;87.60;;;;;;6124423;23;92437;-73
2022/03/17 07:02:34;;;;;;;10.50;8.00;;;11.00;87.40;;;;;;6125536;22;93162;-70
2022/03/17 07:05:03;;;;;;;12.52;7.28;;;11.00;87.10;;;;;;6124736;22;103651;-73
2022/03/17 07:07:29;;;;;;;13.93;7.35;;;11.10;86.70;;;;;;6124341;23;92529;-73
2022/03/17 07:09:57;;;;;;;13.75;7.18;;;11.00;86.40;;;;;;6100216;23;91763;-73
2022/03/17 07:12:25;;;;;;;9.55;7.15;;;11.00;86.40;;;;;;6123887;23;93249;-70
2022/03/17 07:14:53;;;;;;;14.60;6.57;;;11.00;86.40;;;;;;6123474;23;95637;-70
2022/03/17 07:17:22;;;;;;;12.57;6.30;;;11.00;86.30;;;;;;6122342;23;94907;-70
2022/03/17 07:19:58;;;;;;;12.98;5.30;;;11.00;86.40;;;;;;6125104;22;93068;-70
2022/03/17 07:22:27;;;;;;;11.27;5.80;;;10.90;86.40;;;;;;6125162;22;93174;-70
2022/03/17 07:24:54;;;;;;;11.23;5.72;;;10.80;86.20;;;;;;6125271;23;93098;-70
2022/03/17 07:27:21;;;;;;;10.20;5.22;;;10.80;86.40;;;;;;6123848;23;92430;-70
2022/03/17 07:29:49;;;;;;;12.75;6.28;;;10.80;86.50;;;;;;6125443;22;92383;-73
2022/03/17 07:32:16;;;;;;;11.32;5.22;;;10.70;86.20;;;;;;6099658;23;95831;-73
2022/03/17 07:34:43;;;;;;;7.82;4.30;;;10.70;86.20;;;;;;6124547;23;95467;-73
2022/03/17 07:37:10;;;;;;;4.57;3.90;;;10.70;86.00;;;;;;6124425;23;92476;-73
2022/03/17 07:39:37;;;;;;;7.32;3.00;;;10.70;85.50;;;;;;6125976;22;92490;-73
2022/03/17 07:42:05;;;;;;;5.00;2.67;;;10.70;84.90;;;;;;6124351;23;95789;-73
2022/03/17 07:44:52;;;;;;;4.53;2.33;;;10.80;85.00;;;;;;6124452;23;96092;-73
2022/03/17 07:47:57;;;;;;;9.25;3.03;;;10.80;83.90;;;;;;6077196;23;92337;-73
2022/03/17 07:50:24;;;;;;;8.18;2.88;;;10.90;84.10;;;;;;6124291;23;92608;-73
2022/03/17 07:52:51;;;;;;;5.72;2.15;;;10.90;83.70;;;;;;6123947;23;94074;-73
2022/03/17 07:55:19;;;;;;;7.40;2.60;;;11.00;83.10;;;;;;6123967;23;94670;-73
2022/03/17 07:57:46;;;;;;;7.78;2.17;;;11.00;83.10;;;;;;6099344;23;92417;-73
2022/03/17 08:00:13;;;;;;;5.80;2.50;;;11.10;82.40;;;;;;6124734;23;91821;-73
2022/03/17 08:02:41;;;;;;;7.90;2.55;;;11.20;82.70;;;;;;6123506;23;93042;-70
2022/03/17 08:05:10;;;;;;;11.88;2.70;;;11.30;82.20;;;;;;6124706;22;92917;-70
2022/03/17 08:07:38;;;;;;;4.65;1.90;;;11.30;81.70;;;;;;6123606;22;94677;-70
2022/03/17 08:10:06;;;;;;;7.40;2.63;;;11.30;81.90;;;;;;6123814;23;92447;-70
2022/03/17 08:12:33;;;;;;;5.53;2.67;;;11.30;81.90;;;;;;6123236;23;93205;-70
2022/03/17 08:15:03;;;;;;;4.00;1.98;;;11.30;81.90;;;;;;6125313;22;92902;-73
2022/03/17 08:17:31;;;;;;;6.07;2.10;;;11.30;81.50;;;;;;6099857;23;92515;-73
2022/03/17 08:19:58;;;;;;;5.93;2.17;;;11.40;81.50;;;;;;6124376;23;92499;-73
2022/03/17 08:22:25;;;;;;;8.00;2.72;;;11.30;81.40;;;;;;6123977;23;93032;-73
2022/03/17 08:24:52;;;;;;;7.10;1.90;;;11.30;81.40;;;;;;6125772;22;92924;-73
2022/03/17 08:27:19;;;;;;;6.82;1.98;;;11.20;81.90;;;;;;6123991;23;92587;-73
2022/03/17 08:29:48;;;;;;;4.60;1.40;;;11.20;82.30;;;;;;6125366;23;92393;-73
2022/03/17 08:32:15;;;;;;;7.03;1.60;;;11.10;82.30;;;;;;6123892;22;95632;-73
2022/03/17 08:34:43;;;;;;;5.60;1.80;;;11.00;82.40;;;;;;6123668;23;95503;-73
2022/03/17 08:37:10;;;;;;;4.72;2.10;;;11.00;82.30;;;;;;6124355;23;93042;-73
2022/03/17 08:39:37;;;;;;;7.43;1.67;;;10.90;81.90;;;;;;6123660;23;92866;-73
2022/03/17 08:42:05;;;;;;;7.10;1.60;;;10.90;81.70;;;;;;6125312;22;93079;-74
2022/03/17 08:44:32;;;;;;;5.20;1.42;;;10.90;81.40;;;;;;6125250;23;92975;-73
2022/03/17 08:49:45;;;;;;;6.05;1.65;;;10.80;80.10;;;;;;6125709;23;91658;-73
2022/03/17 08:52:12;;;;;;;8.68;2.55;;;10.80;80.90;;;;;;6123684;23;95834;-73
2022/03/17 08:54:39;;;;;;;8.38;1.88;;;10.90;80.50;;;;;;6125090;22;92997;-73
2022/03/17 08:57:06;;;;;;;10.27;2.03;;;10.90;80.20;;;;;;6123744;22;94724;-73
2022/03/17 08:59:36;;;;;;;11.38;2.30;;;10.90;80.10;;;;;;6125283;23;92377;-73
2022/03/17 09:02:05;;;;;;;8.90;1.90;;;10.90;80.00;;;;;;6125577;22;94765;-73
2022/03/17 09:04:34;;;;;;;11.25;2.72;;;11.00;80.00;;;;;;6126155;23;92816;-73
2022/03/17 09:07:02;;;;;;;10.85;2.30;;;10.90;79.60;;;;;;6126590;23;92489;-73
2022/03/17 09:09:34;;;;;;;9.75;1.95;;;11.00;79.60;;;;;;6125204;23;92240;-74
2022/03/17 09:12:05;;;;;;;9.63;1.67;;;11.10;79.20;;;;;;6126506;22;93115;-73
2022/03/17 09:14:36;;;;;;;11.18;2.28;;;11.10;78.50;;;;;;6126987;23;92915;-73
2022/03/17 09:17:04;;;;;;;9.95;1.80;;;11.10;78.00;;;;;;6126448;23;92426;-73
2022/03/17 09:19:32;;;;;;;9.38;1.63;;;11.00;78.10;;;;;;6126278;22;94208;-73
2022/03/17 09:22:00;;;;;;;8.30;2.13;;;11.00;77.40;;;;;;6122824;23;96741;-73
2022/03/17 09:24:30;;;;;;;10.38;2.33;;;10.90;77.40;;;;;;6126261;22;95037;-73
2022/03/17 09:26:58;;;;;;;6.82;1.80;;;10.90;77.00;;;;;;6124470;23;92417;-73
2022/03/17 09:29:28;;;;;;;6.93;1.80;;;10.80;76.70;;;;;;6126442;22;92363;-73
2022/03/17 09:31:58;;;;;;;8.90;1.98;;;10.60;76.70;;;;;;6124844;23;93285;-73
2022/03/17 09:34:25;;;;;;;7.82;2.03;;;10.50;77.60;;;;;;6099868;23;95418;-73
2022/03/17 09:36:52;;;;;;;11.02;2.65;;;10.50;78.30;;;;;;6100361;23;92398;-73
2022/03/17 09:42:04;;;;;;;12.68;2.40;;;10.60;77.40;;;;;;6126133;23;93078;-73
2022/03/17 09:44:31;;;;;;;7.25;1.80;;;10.70;77.70;;;;;;6124337;23;105207;-73
2022/03/17 09:46:59;;;;;;;6.68;1.90;;;10.90;77.50;;;;;;6124502;22;95030;-73
2022/03/17 09:49:28;;;;;;;7.15;1.83;;;11.10;77.00;;;;;;6099904;23;92693;-73
2022/03/17 09:51:58;;;;;;;7.32;1.92;;;11.20;75.80;;;;;;6124172;23;94164;-73
2022/03/17 09:54:25;;;;;;;7.18;1.98;;;11.30;74.30;;;;;;6124645;23;92966;-73
2022/03/17 09:56:52;;;;;;;11.05;2.47;;;11.10;73.20;;;;;;6126251;22;92422;-74
2022/03/17 09:59:19;;;;;;;8.07;1.80;;;10.90;74.00;;;;;;6124744;23;92472;-73
2022/03/17 10:01:46;;;;;;;8.50;1.50;;;10.90;74.40;;;;;;6099701;23;96137;-73
2022/03/17 10:04:14;;;;;;;8.20;2.28;;;10.90;74.50;;;;;;6126064;23;93024;-73
2022/03/17 10:06:42;;;;;;;10.50;2.15;;;11.00;75.20;;;;;;6125030;23;92478;-73
2022/03/17 10:09:09;;;;;;;5.93;1.80;;;11.10;75.30;;;;;;6124208;23;92671;-73
2022/03/17 10:11:37;;;;;;;8.57;1.98;;;11.10;74.70;;;;;;6123044;23;95594;-73
2022/03/17 10:14:06;;;;;;;7.35;1.90;;;11.10;74.90;;;;;;6123765;23;98003;-73
2022/03/17 10:16:33;;;;;;;10.77;2.38;;;11.10;75.10;;;;;;6100071;23;92503;-73
2022/03/17 10:19:06;;;;;;;9.75;2.15;;;11.00;75.20;;;;;;6124679;23;92370;-73
2022/03/17 10:21:34;;;;;;;9.75;2.20;;;11.10;75.40;;;;;;6126282;22;93176;-73
2022/03/17 10:24:06;;;;;;;12.77;2.40;;;11.20;74.90;;;;;;6125938;22;92856;-73
2022/03/17 10:26:39;;;;;;;12.05;3.10;;;11.30;74.90;;;;;;6100102;23;92472;-73
2022/03/17 10:29:10;;;;;;;10.70;2.20;;;11.50;74.80;;;;;;6126132;22;93762;-73
2022/03/17 10:31:52;;;;;;;8.68;2.20;;;11.70;74.50;;;;;;6126115;22;93174;-74
2022/03/17 10:34:21;;;;;;;10.38;2.65;;;11.90;73.60;;;;;;6126419;22;92833;-73
2022/03/17 10:36:48;;;;;;;7.90;2.22;;;12.10;73.30;;;;;;6122805;23;95227;-73
2022/03/17 10:39:16;;;;;;;7.95;2.05;;;12.30;72.90;;;;;;6126416;22;92317;-73
2022/03/17 10:41:45;;;;;;;10.52;2.22;;;12.70;72.20;;;;;;6125526;22;106011;-73
2022/03/17 10:44:15;;;;;;;12.40;2.47;;;12.90;71.40;;;;;;6125871;23;93092;-73
2022/03/17 10:47:01;;;;;;;8.57;1.90;;;13.10;70.30;;;;;;6124876;23;92413;-73
2022/03/17 10:49:29;;;;;;;10.20;2.17;;;13.30;69.50;;;;;;6124394;23;92457;-74
2022/03/17 10:51:57;;;;;;;8.57;2.40;;;13.30;69.90;;;;;;6124297;23;93095;-74
2022/03/17 10:54:24;;;;;;;6.00;2.10;;;13.50;70.20;;;;;;6126610;22;91792;-74
2022/03/17 10:57:11;;;;;;;7.43;1.98;;;13.60;69.60;;;;;;6124065;23;92515;-74
2022/03/17 10:59:42;;;;;;;6.65;1.55;;;13.60;67.80;;;;;;6124509;23;92444;-74
2022/03/17 11:02:10;;;;;;;8.82;1.80;;;13.40;67.40;;;;;;6122880;23;95561;-74
2022/03/17 11:04:40;;;;;;;5.28;1.38;;;13.20;67.60;;;;;;6123779;23;97767;-74
2022/03/17 11:07:13;;;;;;;7.80;2.20;;;13.00;67.00;;;;;;6125906;22;92877;-74
2022/03/17 11:09:45;;;;;;;9.93;2.50;;;13.10;68.20;;;;;;6126165;22;92321;-74
2022/03/17 11:12:17;;;;;;;5.18;1.75;;;13.30;68.80;;;;;;6123965;23;95889;-74
2022/03/17 11:14:53;;;;;;;11.07;2.25;;;13.50;68.40;;;;;;6124493;23;92833;-74
2022/03/17 11:17:26;;;;;;;6.60;1.55;;;13.70;67.20;;;;;;6124811;23;92905;-74
2022/03/17 11:20:02;;;;;;;6.95;1.98;;;13.70;66.00;;;;;;6124897;23;91807;-74
2022/03/17 11:22:32;;;;;;;10.32;2.15;;;13.80;66.30;;;;;;6124459;23;93196;-74
2022/03/17 11:25:25;;;;;;;9.70;1.77;;;13.80;66.50;;;;;;6099661;23;95417;-74
2022/03/17 11:28:03;;;;;;;8.00;2.03;;;14.10;66.40;;;;;;6124527;22;94742;-74
2022/03/17 11:30:42;;;;;;;6.75;1.40;;;14.10;63.70;;;;;;6125851;22;92304;-73
2022/03/17 11:33:48;;;;;;;4.90;1.65;;;14.30;63.70;;;;;;6125459;23;92302;-73
2022/03/17 11:36:23;;;;;;;8.93;2.20;;;14.30;63.00;;;;;;6095101;23;96547;-74
2022/03/17 11:38:58;;;;;;;6.45;2.47;;;14.40;65.60;;;;;;6126197;22;92401;-73
2022/03/17 11:41:26;;;;;;;6.20;1.95;;;14.70;65.10;;;;;;6123858;23;92475;-71
2022/03/17 11:43:53;;;;;;;8.85;2.28;;;14.60;62.40;;;;;;6125365;22;93095;-71
2022/03/17 11:46:24;;;;;;;4.68;1.90;;;14.70;62.70;;;;;;6123579;23;95602;-71
2022/03/17 11:48:56;;;;;;;8.35;1.73;;;14.80;63.50;;;;;;6124014;23;92490;-71
2022/03/17 11:51:25;;;;;;;10.00;1.92;;;14.90;62.80;;;;;;6125491;22;92345;-71
2022/03/17 11:53:52;;;;;;;9.73;2.05;;;14.80;61.30;;;;;;6121984;23;98203;-71
2022/03/17 11:56:47;;;;;;;5.28;1.50;;;14.60;60.30;;;;;;6123701;23;95267;-71
2022/03/17 11:59:16;;;;;;;7.07;2.30;;;14.30;60.70;;;;;;6125206;22;92447;-71
2022/03/17 12:01:46;;;;;;;7.18;1.80;;;14.40;63.00;;;;;;6098776;23;93911;-71
2022/03/17 12:04:28;;;;;;;9.20;2.22;;;14.40;62.90;;;;;;6124462;22;93073;-71
2022/03/17 12:07:19;;;;;;;6.47;3.20;;;14.60;62.50;;;;;;6125329;22;92485;-74
2022/03/17 12:09:47;;;;;;;7.75;2.50;;;14.40;60.70;;;;;;6124591;23;92413;-74
2022/03/17 12:12:22;;;;;;;6.85;2.15;;;14.40;62.00;;;;;;6125963;23;91924;-74
2022/03/17 12:14:55;;;;;;;5.68;2.00;;;14.50;61.70;;;;;;6125468;23;93034;-74
2022/03/17 12:17:27;;;;;;;9.20;2.30;;;14.50;60.70;;;;;;6148843;22;95548;-74
2022/03/17 12:20:14;;;;;;;8.23;2.30;;;14.40;61.10;;;;;;6106909;23;95616;-73
2022/03/17 12:22:44;;;;;;;10.45;2.00;;;14.40;60.40;;;;;;6077416;23;92779;-73
2022/03/17 12:25:18;;;;;;;5.85;2.13;;;14.40;61.50;;;;;;6102082;23;93021;-73
2022/03/17 12:27:55;;;;;;;8.48;2.40;;;14.50;61.30;;;;;;6104059;22;92938;-76
2022/03/17 12:30:24;;;;;;;6.55;1.80;;;14.60;60.80;;;;;;6102576;23;93470;-76
2022/03/17 12:32:59;;;;;;;8.43;2.08;;;14.60;60.10;;;;;;6101160;23;93484;-76
2022/03/17 12:35:28;;;;;;;5.82;1.67;;;14.80;59.60;;;;;;6099782;23;95698;-77
2022/03/17 12:38:00;;;;;;;5.55;1.95;;;14.70;58.50;;;;;;6103300;22;92993;-78
2022/03/17 12:40:30;;;;;;;6.88;1.85;;;14.80;60.00;;;;;;6104473;22;93192;-77
2022/03/17 12:42:57;;;;;;;6.93;1.90;;;14.70;59.50;;;;;;6078967;23;96299;-74
2022/03/17 12:45:25;;;;;;;7.18;1.90;;;14.60;59.00;;;;;;6101179;23;95600;-75
2022/03/17 12:47:59;;;;;;;5.88;1.85;;;14.50;58.60;;;;;;6104071;22;94450;-74
2022/03/17 12:50:29;;;;;;;11.07;2.35;;;14.50;59.20;;;;;;6103494;22;93297;-74
2022/03/17 12:52:56;;;;;;;3.75;1.42;;;14.50;59.00;;;;;;6103646;23;93186;-77
2022/03/17 12:55:24;;;;;;;9.70;2.13;;;14.30;58.40;;;;;;6104473;23;99459;-80